Farlington, KS

11:35 AM CST on February 14, 2016 (GMT -0600)
APRSWXNET | | Change Station
CLOSE
Current Station
Personal Weather Station
Location: Mulberry, KS
Elevation: 974 ft
Nearby Weather Stations

Elev 974 ft 37.54 °N, 94.67 °W | Updated 32 minutes ago

Clear
Clear
40 °F
Feels Like 35 °F
N
8
Wind Variable Wind from SSW
Gusts 0.0 mph

Today
High -- | Low -- °F
--% Chance of Precip.
Yesterday
High -- | Low -- °F
Precip. -- in
Pressure 29.96 in
Visibility 10.0 miles
Clouds Clear
Windchill 35 °F
Dew Point 32 °F
Humidity 73%
Rainfall in
Snow Depth Not available.
7:10 AM 5:56 PM
Waxing Crescent, 43% visible
METAR KPTS 141715Z AUTO 17008KT 10SM CLR 07/00 A2996 RMK AO2 T00650001
Pressure 29.96 in
Visibility 10.0 miles
Clouds Clear
Windchill 35 °F
Dew Point 32 °F
Humidity 73%
Rainfall in
Snow Depth Not available.
7:10 AM 5:56 PM
Waxing Crescent, 43% visible
METAR KPTS 141715Z AUTO 17008KT 10SM CLR 07/00 A2996 RMK AO2 T00650001

10-Day Weather Forecast

Almanac

Astronomy

Feb. 14, 2016 Rise Set
Actual Time
Civil Twilight
Nautical Twilight
Astronomical Twilight
Moon
Length of Visible Light
Length of Day
Tomorrow will be .
, % of the Moon is Illuminated

Today's Extremes

State Highs State Lows

Community

WunderPhotos

Upload Photos

1,892,859 photos uploaded!

WunderBlog® & News

Nearby

Air Quality

  Air Quality AQ Index Pollutant
Not available.

Snow Depth

Station Depth Elevation

Earthquake Activity

City Distance Mag. Time & Date
Minimum magnitude displayed is 2.5.

Coastal Water Temperatures

Place Temperature

Stations

Nearby Weather Stations

Station Location Temp. Windchill Dew Point Humidity Wind Precip. Elev Updated Type
                   

Watches & Warnings

There are currently no watches in effect.